createdAt,value
2022-11-15T00:02:39.414Z,95470.38
2022-11-15T00:05:26.286Z,95467.31
2022-11-15T00:08:13.941Z,95469.59
2022-11-15T00:11:01.626Z,95466.84
2022-11-15T00:13:48.395Z,95456.59
2022-11-15T00:16:34.693Z,95450.41
2022-11-15T00:19:21.199Z,95446.88
2022-11-15T00:22:07.459Z,95448.00
2022-11-15T00:24:55.914Z,95439.00
2022-11-15T00:27:42.033Z,95442.91
2022-11-15T00:30:29.317Z,95444.03
2022-11-15T00:33:15.705Z,95434.09
2022-11-15T00:36:03.280Z,95426.38
2022-11-15T00:38:49.790Z,95426.91
2022-11-15T00:41:37.547Z,95424.47
2022-11-15T00:44:24.221Z,95420.34
2022-11-15T00:47:10.335Z,95428.66
2022-11-15T00:49:57.449Z,95436.56
2022-11-15T00:52:44.049Z,95431.00
2022-11-15T00:55:31.268Z,95436.41
2022-11-15T00:58:19.079Z,95429.84
2022-11-15T01:01:10.043Z,95427.41
2022-11-15T01:04:01.105Z,95430.50
2022-11-15T01:06:47.794Z,95421.47
2022-11-15T01:09:34.833Z,95421.63
2022-11-15T01:12:21.545Z,95415.75
2022-11-15T01:15:10.469Z,95425.19
2022-11-15T01:17:57.158Z,95415.66
2022-11-15T01:20:44.581Z,95410.72
2022-11-15T01:23:32.189Z,95409.09
2022-11-15T01:26:18.510Z,95408.59
2022-11-15T01:29:05.555Z,95407.16
2022-11-15T01:31:54.849Z,95404.88
2022-11-15T01:34:41.848Z,95395.13
2022-11-15T01:37:28.215Z,95395.13
2022-11-15T01:40:14.885Z,95403.31
2022-11-15T01:43:01.145Z,95399.13
2022-11-15T01:45:52.157Z,95394.50
2022-11-15T01:48:39.986Z,95391.53
2022-11-15T01:51:30.208Z,95398.38
2022-11-15T01:54:20.706Z,95396.34
2022-11-15T01:57:11.572Z,95401.53
2022-11-15T02:00:01.642Z,95402.34
2022-11-15T02:02:47.748Z,95394.97
2022-11-15T02:05:38.666Z,95396.06
2022-11-15T02:08:24.760Z,95389.78
2022-11-15T02:11:11.624Z,95393.00
2022-11-15T02:13:59.985Z,95398.84
2022-11-15T02:16:53.536Z,95389.00
2022-11-15T02:20:04.866Z,95380.41
2022-11-15T02:23:12.003Z,95374.13
2022-11-15T02:26:18.597Z,95357.16
2022-11-15T02:29:09.687Z,95352.31
2022-11-15T02:32:05.269Z,95349.06
2022-11-15T02:35:02.764Z,95351.41
2022-11-15T02:37:58.065Z,95342.50
2022-11-15T02:40:54.165Z,95355.88
2022-11-15T02:44:00.488Z,95348.13
2022-11-15T02:47:09.157Z,95340.16
2022-11-15T02:50:01.105Z,95337.00
2022-11-15T02:52:48.117Z,95347.72
2022-11-15T02:55:36.785Z,95346.38
2022-11-15T02:58:39.401Z,95333.34
2022-11-15T03:01:40.332Z,95333.72
2022-11-15T03:04:34.885Z,95332.81
2022-11-15T03:07:30.770Z,95330.72
2022-11-15T03:10:24.797Z,95336.31
2022-11-15T03:13:21.844Z,95334.00
2022-11-15T03:16:12.885Z,95327.97
2022-11-15T03:19:04.878Z,95329.91
2022-11-15T03:21:53.100Z,95328.78
2022-11-15T03:24:43.175Z,95322.97
2022-11-15T03:27:33.441Z,95312.22
2022-11-15T03:30:20.904Z,95315.44
2022-11-15T03:33:10.219Z,95312.91
2022-11-15T03:35:57.605Z,95310.75
2022-11-15T03:38:47.063Z,95309.25
2022-11-15T03:41:41.493Z,95316.22
2022-11-15T03:44:39.212Z,95307.84
2022-11-15T03:47:31.140Z,95298.06
2022-11-15T03:50:21.055Z,95297.75
2022-11-15T03:53:07.835Z,95296.56
2022-11-15T03:55:54.424Z,95293.44
2022-11-15T03:58:43.184Z,95302.41
2022-11-15T04:01:29.602Z,95304.34
2022-11-15T04:04:16.361Z,95305.38
2022-11-15T04:07:03.014Z,95303.97
2022-11-15T04:10:06.750Z,95294.59
2022-11-15T04:12:53.012Z,95287.03
2022-11-15T04:15:40.641Z,95285.31
2022-11-15T04:18:27.441Z,95292.97
2022-11-15T04:21:31.693Z,95292.84
2022-11-15T04:24:18.588Z,95276.72
2022-11-15T04:27:05.081Z,95288.22
2022-11-15T04:29:51.592Z,95283.66
2022-11-15T04:32:39.448Z,95274.50
2022-11-15T04:35:26.392Z,95263.38
2022-11-15T04:38:13.280Z,95255.50
2022-11-15T04:40:59.615Z,95255.34
2022-11-15T04:43:46.430Z,95261.38
2022-11-15T04:46:32.872Z,95261.88
2022-11-15T04:49:21.026Z,95256.66
2022-11-15T04:52:07.541Z,95256.16
2022-11-15T04:54:54.329Z,95254.22
2022-11-15T04:57:40.465Z,95257.28
2022-11-15T05:00:28.013Z,95252.13
2022-11-15T05:03:32.434Z,95241.28
2022-11-15T05:06:20.363Z,95249.84
2022-11-15T05:09:06.941Z,95239.19
2022-11-15T05:11:53.090Z,95229.81
2022-11-15T05:14:39.961Z,95230.13
2022-11-15T05:17:26.125Z,95233.56
2022-11-15T05:20:13.647Z,95235.19
2022-11-15T05:23:01.410Z,95240.16
2022-11-15T05:25:47.580Z,95235.41
2022-11-15T05:28:35.560Z,95227.91
2022-11-15T05:31:21.660Z,95232.41
2022-11-15T05:34:08.383Z,95223.63
2022-11-15T05:36:55.635Z,95221.72
2022-11-15T05:39:43.406Z,95217.47
2022-11-15T05:42:30.061Z,95217.75
2022-11-15T05:45:21.287Z,95215.38
2022-11-15T05:48:12.224Z,95216.34
2022-11-15T05:50:59.008Z,95225.78
2022-11-15T05:53:46.489Z,95218.19
2022-11-15T05:56:34.424Z,95221.03
2022-11-15T05:59:21.404Z,95219.66
2022-11-15T06:02:07.532Z,95215.03
2022-11-15T06:04:54.969Z,95214.66
2022-11-15T06:07:41.458Z,95216.50
2022-11-15T06:10:28.186Z,95220.84
2022-11-15T06:13:15.873Z,95223.38
2022-11-15T06:16:02.483Z,95214.56
2022-11-15T06:18:49.155Z,95217.34
2022-11-15T06:21:35.475Z,95226.59
2022-11-15T06:24:22.869Z,95214.47
2022-11-15T06:27:09.420Z,95212.38
2022-11-15T06:29:57.346Z,95212.47
2022-11-15T06:32:43.641Z,95220.00
2022-11-15T06:35:30.892Z,95221.88
2022-11-15T06:38:17.564Z,95220.97
2022-11-15T06:41:05.158Z,95221.19
2022-11-15T06:43:52.140Z,95211.06
2022-11-15T06:46:39.903Z,95219.22
2022-11-15T06:52:34.897Z,95224.97
2022-11-15T06:55:21.336Z,95230.72
2022-11-15T06:58:08.146Z,95227.22
2022-11-15T07:00:54.304Z,95221.72
2022-11-15T07:03:43.941Z,95220.66
2022-11-15T07:06:30.624Z,95217.44
2022-11-15T07:09:16.914Z,95222.13
2022-11-15T07:12:07.447Z,95227.06
2022-11-15T07:14:55.286Z,95227.19
2022-11-15T07:17:41.898Z,95220.28
2022-11-15T07:20:30.393Z,95213.16
2022-11-15T07:23:16.872Z,95201.97
2022-11-15T07:26:03.098Z,95207.41
2022-11-15T07:28:50.081Z,95199.84
2022-11-15T07:31:36.432Z,95203.81
2022-11-15T07:34:23.316Z,95208.94
2022-11-15T07:37:10.859Z,95201.91
2022-11-15T07:39:57.388Z,95213.69
2022-11-15T07:42:57.523Z,95213.66
2022-11-15T07:45:45.152Z,95215.00
2022-11-15T07:48:43.512Z,95204.19
2022-11-15T07:51:30.893Z,95202.56
2022-11-15T07:54:18.616Z,95188.97
2022-11-15T07:57:07.575Z,95191.06
2022-11-15T07:59:55.306Z,95177.41
2022-11-15T08:02:42.173Z,95177.16
2022-11-15T08:05:29.311Z,95172.47
2022-11-15T08:08:16.008Z,95184.22
2022-11-15T08:11:03.700Z,95174.94
2022-11-15T08:13:50.392Z,95173.97
2022-11-15T08:16:36.506Z,95173.38
2022-11-15T08:19:23.240Z,95165.50
2022-11-15T08:22:09.636Z,95160.03
2022-11-15T08:24:56.649Z,95158.63
2022-11-15T08:27:44.812Z,95164.91
2022-11-15T08:30:33.070Z,95157.19
2022-11-15T08:33:19.780Z,95163.56
2022-11-15T08:36:06.383Z,95155.59
2022-11-15T08:38:52.851Z,95150.19
2022-11-15T08:41:39.626Z,95139.78
2022-11-15T08:44:27.779Z,95138.47
2022-11-15T08:47:14.635Z,95133.19
2022-11-15T08:50:01.313Z,95136.88
2022-11-15T08:52:49.081Z,95141.69
2022-11-15T08:55:39.113Z,95135.78
2022-11-15T08:58:26.135Z,95140.81
2022-11-15T09:01:19.442Z,95143.16
2022-11-15T09:04:07.278Z,95144.41
2022-11-15T09:06:53.653Z,95144.66
2022-11-15T09:09:40.304Z,95130.41
2022-11-15T09:12:26.767Z,95130.50
2022-11-15T09:15:13.550Z,95126.50
2022-11-15T09:18:01.787Z,95115.34
2022-11-15T09:20:48.188Z,95121.94
2022-11-15T09:23:35.292Z,95116.97
2022-11-15T09:26:21.414Z,95105.88
2022-11-15T09:29:08.689Z,95115.44
2022-11-15T09:31:54.865Z,95116.31
2022-11-15T09:34:43.401Z,95124.13
2022-11-15T09:37:29.674Z,95116.75
2022-11-15T09:40:20.256Z,95116.06
2022-11-15T09:43:31.177Z,95100.59
2022-11-15T09:46:24.797Z,95099.69
2022-11-15T09:49:19.780Z,95096.84
2022-11-15T09:52:13.474Z,95089.34
2022-11-15T09:54:53.197Z,95081.19
2022-11-15T09:57:31.925Z,95069.66
2022-11-15T10:03:12.278Z,95047.34
2022-11-15T10:05:43.245Z,95048.03
2022-11-15T10:08:53.639Z,95038.03
2022-11-15T10:11:40.208Z,95025.88
2022-11-15T10:14:13.789Z,95021.81
2022-11-15T10:17:16.828Z,95019.47
2022-11-15T10:20:02.528Z,95012.81
2022-11-15T10:22:40.427Z,95011.22
2022-11-15T10:25:21.377Z,95012.50
2022-11-15T10:27:59.769Z,95013.50
2022-11-15T10:30:39.132Z,94999.59
2022-11-15T10:33:26.073Z,94989.63
2022-11-15T10:36:19.045Z,94981.00
2022-11-15T10:38:58.683Z,94978.03
2022-11-15T10:41:38.565Z,94973.63
2022-11-15T10:44:27.749Z,94975.28
2022-11-15T10:47:25.578Z,94971.56
2022-11-15T10:49:59.157Z,94966.94
2022-11-15T10:52:27.536Z,94961.59
2022-11-15T10:54:59.298Z,94959.19
2022-11-15T10:57:30.484Z,94951.00
2022-11-15T11:00:01.189Z,94955.81
2022-11-15T11:02:34.826Z,94963.47
2022-11-15T11:05:04.123Z,94953.31
2022-11-15T11:07:33.547Z,94948.69
2022-11-15T11:10:13.287Z,94942.66
2022-11-15T11:12:52.397Z,94941.31
2022-11-15T11:15:20.468Z,94938.66
2022-11-15T11:17:59.698Z,94934.69
2022-11-15T11:20:33.202Z,94931.16
2022-11-15T11:23:16.040Z,94920.72
2022-11-15T11:25:53.136Z,94923.50
2022-11-15T11:28:38.876Z,94929.94
2022-11-15T11:31:21.149Z,94925.06
2022-11-15T11:33:57.241Z,94916.59
2022-11-15T11:36:29.450Z,94920.91
2022-11-15T11:39:08.766Z,94917.34
2022-11-15T11:41:55.523Z,94914.84
2022-11-15T11:44:45.960Z,94919.94
2022-11-15T11:47:17.000Z,94918.84
2022-11-15T11:49:48.465Z,94919.44
2022-11-15T11:52:20.998Z,94911.94
2022-11-15T11:54:58.033Z,94908.03
2022-11-15T11:57:35.354Z,94904.81
2022-11-15T12:00:14.309Z,94902.03
2022-11-15T12:02:48.329Z,94902.81
2022-11-15T12:05:25.325Z,94908.72
2022-11-15T12:08:00.478Z,94894.88
2022-11-15T12:10:33.117Z,94903.47
2022-11-15T12:13:06.413Z,94896.50
2022-11-15T12:15:43.028Z,94885.78
2022-11-15T12:18:17.073Z,94890.88
2022-11-15T12:20:54.821Z,94888.72
2022-11-15T12:23:29.868Z,94893.84
2022-11-15T12:26:02.562Z,94892.19
2022-11-15T12:28:52.896Z,94897.66
2022-11-15T12:31:38.829Z,94895.56
2022-11-15T12:34:18.096Z,94889.13
2022-11-15T12:36:46.345Z,94890.38
2022-11-15T12:39:14.611Z,94890.25
2022-11-15T12:41:43.463Z,94883.47
2022-11-15T12:44:14.550Z,94878.41
2022-11-15T12:47:24.416Z,94882.81
2022-11-15T12:49:52.855Z,94888.78
2022-11-15T12:52:21.370Z,94877.91
2022-11-15T12:55:01.190Z,94884.03
2022-11-15T12:57:43.998Z,94889.53
2022-11-15T13:00:44.567Z,94895.63
2022-11-15T13:03:34.415Z,94893.72
2022-11-15T13:06:10.730Z,94895.38
2022-11-15T13:08:48.536Z,94899.78
2022-11-15T13:11:49.060Z,94887.34
2022-11-15T13:14:43.357Z,94887.28
2022-11-15T13:17:38.679Z,94887.66
2022-11-15T13:20:27.790Z,94898.31
2022-11-15T13:23:03.442Z,94899.53
2022-11-15T13:25:54.989Z,94901.63
2022-11-15T13:28:29.189Z,94893.19
2022-11-15T13:30:58.945Z,94893.31
2022-11-15T13:33:35.953Z,94893.31
2022-11-15T13:36:09.350Z,94899.69
2022-11-15T13:38:40.161Z,94898.16
2022-11-15T13:41:21.503Z,94889.16
2022-11-15T13:43:50.043Z,94891.56
2022-11-15T13:46:20.232Z,94887.53
2022-11-15T13:48:52.531Z,94883.59
2022-11-15T13:51:27.063Z,94883.28
2022-11-15T13:53:59.966Z,94884.09
2022-11-15T13:56:31.181Z,94888.13
2022-11-15T13:58:58.881Z,94890.78
2022-11-15T14:01:34.032Z,94889.50
2022-11-15T14:04:03.075Z,94888.94
2022-11-15T14:06:32.959Z,94882.31
2022-11-15T14:09:31.057Z,94880.69
2022-11-15T14:11:59.461Z,94885.72
2022-11-15T14:14:28.622Z,94884.25
2022-11-15T14:16:58.297Z,94883.63
2022-11-15T14:19:38.104Z,94878.31
2022-11-15T14:22:29.312Z,94873.78
2022-11-15T14:25:17.190Z,94873.75
2022-11-15T14:27:46.982Z,94874.16
2022-11-15T14:30:16.774Z,94859.72
2022-11-15T14:32:48.563Z,94871.69
2022-11-15T14:35:19.622Z,94861.09
2022-11-15T14:37:49.610Z,94858.28
2022-11-15T14:40:20.553Z,94866.03
2022-11-15T14:42:50.809Z,94856.91
2022-11-15T14:45:20.386Z,94858.41
2022-11-15T14:47:48.872Z,94851.44
2022-11-15T14:50:18.564Z,94845.56
2022-11-15T14:52:49.119Z,94844.97
2022-11-15T14:55:21.524Z,94843.00
2022-11-15T14:57:49.846Z,94849.56
2022-11-15T15:00:18.903Z,94839.03
2022-11-15T15:02:48.330Z,94833.38
2022-11-15T15:05:18.736Z,94826.50
2022-11-15T15:07:49.063Z,94830.66
2022-11-15T15:10:39.050Z,94833.72
2022-11-15T15:13:07.805Z,94830.78
2022-11-15T15:15:37.239Z,94819.84
2022-11-15T15:18:07.183Z,94820.53
2022-11-15T15:20:34.844Z,94820.00
2022-11-15T15:23:04.189Z,94814.31
2022-11-15T15:25:33.836Z,94800.94
2022-11-15T15:28:02.668Z,94807.09
2022-11-15T15:30:31.841Z,94794.94
2022-11-15T15:33:00.029Z,94794.81
2022-11-15T15:35:32.020Z,94794.00
2022-11-15T15:38:00.319Z,94793.63
2022-11-15T15:40:30.570Z,94800.81
2022-11-15T15:42:58.766Z,94796.63
2022-11-15T15:45:27.827Z,94789.31
2022-11-15T15:47:56.143Z,94788.50
2022-11-15T15:50:26.654Z,94787.47
2022-11-15T15:52:57.563Z,94787.25
2022-11-15T15:55:25.843Z,94776.66
2022-11-15T15:57:55.564Z,94776.06
2022-11-15T16:00:25.629Z,94773.28
2022-11-15T16:02:53.656Z,94774.38
2022-11-15T16:05:22.380Z,94774.16
2022-11-15T16:07:50.384Z,94764.00
2022-11-15T16:10:22.159Z,94768.09
2022-11-15T16:12:50.709Z,94764.06
2022-11-15T16:15:20.705Z,94772.22
2022-11-15T16:17:52.069Z,94769.38
2022-11-15T16:20:34.465Z,94762.16
2022-11-15T16:23:08.767Z,94753.84
2022-11-15T16:25:42.096Z,94750.41
2022-11-15T16:28:21.374Z,94745.53
2022-11-15T16:30:56.597Z,94749.78
2022-11-15T16:33:25.044Z,94746.41
2022-11-15T16:35:53.053Z,94742.34
2022-11-15T16:38:20.697Z,94745.63
2022-11-15T16:40:49.161Z,94737.97
2022-11-15T16:43:17.034Z,94741.31
2022-11-15T16:45:44.849Z,94735.69
2022-11-15T16:48:25.188Z,94738.19
2022-11-15T16:50:56.508Z,94725.38
2022-11-15T16:53:24.890Z,94719.53
2022-11-15T16:55:53.603Z,94723.22
2022-11-15T16:58:21.254Z,94722.47
2022-11-15T17:00:52.204Z,94720.84
2022-11-15T17:03:21.669Z,94716.38
2022-11-15T17:05:49.673Z,94718.84
2022-11-15T17:08:20.680Z,94716.03
2022-11-15T17:10:48.749Z,94722.13
2022-11-15T17:13:16.843Z,94721.31
2022-11-15T17:15:45.506Z,94716.44
2022-11-15T17:18:15.388Z,94718.69
2022-11-15T17:20:44.501Z,94713.22
2022-11-15T17:23:16.134Z,94713.41
2022-11-15T17:25:44.005Z,94721.78
2022-11-15T17:28:12.093Z,94717.31
2022-11-15T17:30:43.005Z,94710.63
2022-11-15T17:33:10.634Z,94712.13
2022-11-15T17:35:38.697Z,94711.94
2022-11-15T17:38:07.685Z,94706.44
2022-11-15T17:40:35.714Z,94708.28
2022-11-15T17:43:03.564Z,94707.69
2022-11-15T17:45:31.602Z,94697.13
2022-11-15T17:47:59.247Z,94697.94
2022-11-15T17:50:26.885Z,94697.94
2022-11-15T17:52:54.933Z,94689.44
2022-11-15T17:55:24.251Z,94691.84
2022-11-15T17:57:51.875Z,94691.84
2022-11-15T18:00:21.875Z,94689.44
2022-11-15T18:02:49.494Z,94685.78
2022-11-15T18:05:17.494Z,94679.69
2022-11-15T18:07:45.144Z,94680.50
2022-11-15T18:10:12.780Z,94678.06
2022-11-15T18:12:41.784Z,94681.53
2022-11-15T18:15:10.603Z,94680.50
2022-11-15T18:17:38.251Z,94677.66
2022-11-15T18:20:07.153Z,94665.50
2022-11-15T18:22:35.648Z,94665.91
2022-11-15T18:25:03.307Z,94665.53
2022-11-15T18:27:30.977Z,94654.56
2022-11-15T18:29:59.959Z,94661.88
2022-11-15T18:32:28.044Z,94650.53
2022-11-15T18:34:55.694Z,94652.53
2022-11-15T18:37:23.961Z,94646.44
2022-11-15T18:39:53.989Z,94651.28
2022-11-15T18:42:22.211Z,94638.75
2022-11-15T18:44:49.836Z,94642.41
2022-11-15T18:47:18.843Z,94650.09
2022-11-15T18:49:46.519Z,94649.72
2022-11-15T18:52:14.480Z,94629.44
2022-11-15T18:54:42.224Z,94638.56
2022-11-15T18:57:10.122Z,94623.16
2022-11-15T18:59:37.819Z,94622.97
2022-11-15T19:02:05.671Z,94612.81
2022-11-15T19:04:34.681Z,94613.03
2022-11-15T19:07:02.375Z,94619.72
2022-11-15T19:09:32.635Z,94615.28
2022-11-15T19:12:00.293Z,94615.69
2022-11-15T19:14:28.495Z,94617.31
2022-11-15T19:16:56.433Z,94612.41
2022-11-15T19:19:25.479Z,94610.00
2022-11-15T19:21:55.013Z,94605.75
2022-11-15T19:24:22.640Z,94603.53
2022-11-15T19:26:50.619Z,94599.88
2022-11-15T19:29:18.292Z,94599.66
2022-11-15T19:31:48.458Z,94602.31
2022-11-15T19:34:16.472Z,94604.94
2022-11-15T19:36:45.932Z,94601.72
2022-11-15T19:39:17.991Z,94600.28
2022-11-15T19:41:46.521Z,94598.66
2022-11-15T19:44:14.781Z,94599.06
2022-11-15T19:46:44.502Z,94590.56
2022-11-15T19:49:12.268Z,94590.16
2022-11-15T19:51:42.377Z,94588.13
2022-11-15T19:54:10.544Z,94584.69
2022-11-15T19:56:41.013Z,94582.06
2022-11-15T19:59:11.369Z,94577.59
2022-11-15T20:01:39.348Z,94578.81
2022-11-15T20:04:09.787Z,94584.91
2022-11-15T20:06:43.794Z,94576.78
2022-11-15T20:09:14.246Z,94575.78
2022-11-15T20:11:43.968Z,94568.47
2022-11-15T20:14:12.916Z,94570.09
2022-11-15T20:16:40.668Z,94563.81
2022-11-15T20:19:08.764Z,94564.44
2022-11-15T20:21:36.752Z,94565.44
2022-11-15T20:24:05.349Z,94559.75
2022-11-15T20:26:33.381Z,94563.41
2022-11-15T20:29:03.792Z,94563.41
2022-11-15T20:31:32.275Z,94550.47
2022-11-15T20:34:00.022Z,94550.47
2022-11-15T20:36:27.732Z,94553.50
2022-11-15T20:38:58.145Z,94541.97
2022-11-15T20:41:26.649Z,94542.75
2022-11-15T20:43:54.303Z,94523.53
2022-11-15T20:46:23.356Z,94523.53
2022-11-15T20:48:51.335Z,94520.25
2022-11-15T20:51:19.900Z,94526.53
2022-11-15T20:53:48.572Z,94521.50
2022-11-15T20:56:17.973Z,94518.84
2022-11-15T20:58:46.853Z,94515.63
2022-11-15T21:01:16.203Z,94507.53
2022-11-15T21:03:45.418Z,94499.03
2022-11-15T21:06:13.096Z,94498.44
2022-11-15T21:08:58.792Z,94488.09
2022-11-15T21:11:44.770Z,94495.38
2022-11-15T21:14:12.684Z,94492.13
2022-11-15T21:16:40.386Z,94491.75
2022-11-15T21:19:10.147Z,94482.03
2022-11-15T21:21:38.359Z,94485.47
2022-11-15T21:24:07.605Z,94486.09
2022-11-15T21:26:35.590Z,94475.56
2022-11-15T21:29:03.766Z,94470.28
2022-11-15T21:31:31.928Z,94467.06
2022-11-15T21:34:01.867Z,94472.31
2022-11-15T21:36:30.910Z,94472.31
2022-11-15T21:38:58.549Z,94464.03
2022-11-15T21:41:26.260Z,94459.56
2022-11-15T21:43:58.327Z,94453.72
2022-11-15T21:46:26.275Z,94445.81
2022-11-15T21:48:53.919Z,94446.81
2022-11-15T21:51:21.582Z,94449.25
2022-11-15T21:53:50.596Z,94442.34
2022-11-15T21:56:18.249Z,94436.50
2022-11-15T21:58:46.005Z,94428.81
2022-11-15T22:01:33.292Z,94425.97
2022-11-15T22:04:01.484Z,94418.06
2022-11-15T22:06:30.208Z,94419.66
2022-11-15T22:08:59.705Z,94417.41
2022-11-15T22:11:27.337Z,94427.34
2022-11-15T22:13:55.433Z,94425.06
2022-11-15T22:16:23.201Z,94423.84
2022-11-15T22:18:50.956Z,94433.34
2022-11-15T22:21:19.809Z,94424.47
2022-11-15T22:23:47.446Z,94427.28
2022-11-15T22:26:23.533Z,94421.22
2022-11-15T22:28:52.413Z,94417.59
2022-11-15T22:31:20.303Z,94413.16
2022-11-15T22:33:48.148Z,94410.75
2022-11-15T22:36:15.918Z,94407.72
2022-11-15T22:38:43.577Z,94402.84
2022-11-15T22:41:11.454Z,94394.97
2022-11-15T22:43:40.629Z,94393.16
2022-11-15T22:46:08.515Z,94384.66
2022-11-15T22:48:38.693Z,94379.59
2022-11-15T22:51:07.171Z,94375.75
2022-11-15T22:53:35.121Z,94369.91
2022-11-15T22:56:05.362Z,94355.34
2022-11-15T22:58:33.970Z,94358.41
2022-11-15T23:01:04.989Z,94358.22
2022-11-15T23:03:34.063Z,94354.97
2022-11-15T23:06:03.416Z,94350.34
2022-11-15T23:08:31.311Z,94346.28
2022-11-15T23:11:19.157Z,94336.97
2022-11-15T23:13:47.272Z,94341.19
2022-11-15T23:16:34.867Z,94336.56
2022-11-15T23:19:05.520Z,94344.25
2022-11-15T23:21:52.805Z,94331.09
2022-11-15T23:24:21.715Z,94329.69
2022-11-15T23:26:51.683Z,94326.69
2022-11-15T23:29:21.101Z,94319.41
2022-11-15T23:32:07.722Z,94313.72
2022-11-15T23:34:37.933Z,94303.22
2022-11-15T23:37:07.152Z,94303.03
2022-11-15T23:39:34.900Z,94303.44
2022-11-15T23:42:08.806Z,94308.88
2022-11-15T23:44:37.099Z,94306.88
2022-11-15T23:47:06.483Z,94303.00
2022-11-15T23:49:34.576Z,94308.06
2022-11-15T23:52:02.227Z,94302.22
2022-11-15T23:54:30.615Z,94294.31
2022-11-15T23:56:59.011Z,94295.72
2022-11-15T23:59:26.777Z,94296.72
